This is the latest recevied weather packets stored in our database for station/object HP1CDW-13. If no packets are shown the sender has not sent any weather packets the latest 1 day(s).
| Time | Temp. | Humidity | Pressure | Rain* | Wind** | Luminosity | Snow |
|---|---|---|---|---|---|---|---|
| 1778000090 | 27.78° C | 92% | 1014.6 hPa | 6.1 mm | 0 m/s | - | - |
| 1777999490 | 27.78° C | 93% | 1014.7 hPa | 6.1 mm | 0.89 m/s, 309° | - | - |
| 1777998890 | 27.78° C | 92% | 1014.8 hPa | 6.1 mm | 0.89 m/s, 339° | - | - |
| 1777998290 | 27.78° C | 90% | 1014.9 hPa | 5.59 mm | 0 m/s | - | - |
| 1777997690 | 29.44° C | 86% | 1014.8 hPa | 0 mm | 0.89 m/s, 304° | - | - |
| 1777997090 | 30° C | 82% | 1014.8 hPa | 0 mm | 0.89 m/s, 124° | - | - |
| 1777996490 | 30° C | 80% | 1015 hPa | 0 mm | 0.89 m/s, 149° | - | - |
| 1777995890 | 30° C | 81% | 1015 hPa | 0 mm | 2.24 m/s, 166° | - | - |
| 1777995290 | 30.56° C | 78% | 1014.9 hPa | 0 mm | 1.34 m/s, 161° | - | - |
| 1777994690 | 31.11° C | 76% | 1015 hPa | 0 mm | 0.45 m/s, 109° | - | - |
| 1777994090 | 30.56° C | 77% | 1015.1 hPa | 0 mm | 0.89 m/s, 341° | - | - |
| 1777993490 | 30.56° C | 79% | 1015.1 hPa | 0 mm | 0.45 m/s, 38° | - | - |
| 1777992890 | 30.56° C | 78% | 1015 hPa | 0 mm | 1.34 m/s, 168° | - | - |
| 1777992290 | 30° C | 80% | 1015.2 hPa | 0 mm | 0.45 m/s, 107° | - | - |
| 1777991690 | 30° C | 80% | 1015 hPa | 0 mm | 0.89 m/s, 158° | - | - |
| 1777991090 | 29.44° C | 82% | 1015 hPa | 0 mm | 0.89 m/s, 217° | - | - |
| 1777990490 | 29.44° C | 81% | 1015 hPa | 0 mm | 0.89 m/s, 83° | - | - |
| 1777989890 | 30° C | 79% | 1014.9 hPa | 0 mm | 0.89 m/s, 207° | - | - |
| 1777989290 | 30° C | 79% | 1015 hPa | 0 mm | 1.34 m/s, 240° | - | - |
| 1777988690 | 30° C | 79% | 1014.8 hPa | 0 mm | 0.89 m/s, 186° | - | - |
| 1777988090 | 29.44° C | 80% | 1014.9 hPa | 0 mm | 0.45 m/s, 274° | - | - |
| 1777987490 | 29.44° C | 80% | 1014.5 hPa | 0 mm | 0 m/s | - | - |
| 1777986890 | 28.89° C | 81% | 1014.8 hPa | 0 mm | 1.34 m/s, 309° | - | - |
| 1777986290 | 28.89° C | 83% | 1014.5 hPa | 0 mm | 0 m/s | - | - |
| 1777985690 | 28.33° C | 85% | 1014.4 hPa | 0 mm | 0.45 m/s, 321° | - | - |
* Rain latest hour (hover to see other rain measurements)
** Current wind speed in m/s (hover to see current wind gust speed)